sensor_id;sensor_type;location;lat;lon;timestamp;P1;durP1;ratioP1;P2;durP2;ratioP2
72404;SDS011;60395;52.020;113.548;2023-11-21T00:00:12;20.73;;;5.50;;
72404;SDS011;60395;52.020;113.548;2023-11-21T00:03:16;12.93;;;4.55;;
72404;SDS011;60395;52.020;113.548;2023-11-21T00:06:19;17.17;;;4.82;;
72404;SDS011;60395;52.020;113.548;2023-11-21T00:09:22;11.13;;;4.00;;
72404;SDS011;60395;52.020;113.548;2023-11-21T00:12:26;26.27;;;4.53;;
72404;SDS011;60395;52.020;113.548;2023-11-21T00:15:31;11.18;;;3.85;;
72404;SDS011;60395;52.020;113.548;2023-11-21T00:18:34;24.23;;;3.92;;
72404;SDS011;60395;52.020;113.548;2023-11-21T00:21:38;9.83;;;3.80;;
72404;SDS011;60395;52.020;113.548;2023-11-21T00:24:41;10.90;;;3.65;;
72404;SDS011;60395;52.020;113.548;2023-11-21T00:27:44;11.68;;;2.90;;
72404;SDS011;60395;52.020;113.548;2023-11-21T00:30:48;9.80;;;3.00;;
72404;SDS011;60395;52.020;113.548;2023-11-21T00:33:51;8.85;;;2.88;;
72404;SDS011;60395;52.020;113.548;2023-11-21T00:36:54;10.38;;;2.80;;
72404;SDS011;60395;52.020;113.548;2023-11-21T00:39:57;9.25;;;3.47;;
72404;SDS011;60395;52.020;113.548;2023-11-21T00:46:07;18.00;;;4.60;;
72404;SDS011;60395;52.020;113.548;2023-11-21T00:49:10;10.57;;;4.10;;
72404;SDS011;60395;52.020;113.548;2023-11-21T00:52:14;10.93;;;4.32;;
72404;SDS011;60395;52.020;113.548;2023-11-21T00:55:18;10.77;;;4.35;;
72404;SDS011;60395;52.020;113.548;2023-11-21T00:58:21;13.25;;;3.45;;
72404;SDS011;60395;52.020;113.548;2023-11-21T01:01:25;7.47;;;2.60;;
72404;SDS011;60395;52.020;113.548;2023-11-21T01:04:28;13.25;;;3.95;;
72404;SDS011;60395;52.020;113.548;2023-11-21T01:07:31;17.92;;;4.32;;
72404;SDS011;60395;52.020;113.548;2023-11-21T01:10:35;17.15;;;4.85;;
72404;SDS011;60395;52.020;113.548;2023-11-21T01:13:38;13.82;;;4.57;;
72404;SDS011;60395;52.020;113.548;2023-11-21T01:16:42;26.05;;;6.28;;
72404;SDS011;60395;52.020;113.548;2023-11-21T01:19:46;16.05;;;4.90;;
72404;SDS011;60395;52.020;113.548;2023-11-21T01:22:49;20.17;;;5.13;;
72404;SDS011;60395;52.020;113.548;2023-11-21T01:25:54;21.42;;;5.35;;
72404;SDS011;60395;52.020;113.548;2023-11-21T01:29:00;15.80;;;4.32;;
72404;SDS011;60395;52.020;113.548;2023-11-21T01:32:04;11.77;;;4.03;;
72404;SDS011;60395;52.020;113.548;2023-11-21T01:35:08;28.70;;;4.90;;
72404;SDS011;60395;52.020;113.548;2023-11-21T01:38:12;13.93;;;5.00;;
72404;SDS011;60395;52.020;113.548;2023-11-21T01:41:16;12.45;;;5.13;;
72404;SDS011;60395;52.020;113.548;2023-11-21T01:44:19;8.38;;;3.42;;
72404;SDS011;60395;52.020;113.548;2023-11-21T01:47:23;7.95;;;3.92;;
72404;SDS011;60395;52.020;113.548;2023-11-21T01:50:26;10.52;;;3.60;;
72404;SDS011;60395;52.020;113.548;2023-11-21T01:53:30;24.20;;;4.97;;
72404;SDS011;60395;52.020;113.548;2023-11-21T01:56:34;15.02;;;4.95;;
72404;SDS011;60395;52.020;113.548;2023-11-21T01:59:37;12.18;;;4.50;;
72404;SDS011;60395;52.020;113.548;2023-11-21T02:02:47;7.63;;;2.80;;
72404;SDS011;60395;52.020;113.548;2023-11-21T02:05:54;13.18;;;3.30;;
72404;SDS011;60395;52.020;113.548;2023-11-21T02:08:58;16.33;;;3.42;;
72404;SDS011;60395;52.020;113.548;2023-11-21T02:12:02;13.67;;;3.23;;
72404;SDS011;60395;52.020;113.548;2023-11-21T02:15:06;8.05;;;2.33;;
72404;SDS011;60395;52.020;113.548;2023-11-21T02:18:17;13.27;;;3.17;;
72404;SDS011;60395;52.020;113.548;2023-11-21T02:21:21;7.25;;;2.88;;
72404;SDS011;60395;52.020;113.548;2023-11-21T02:24:24;9.25;;;3.38;;
72404;SDS011;60395;52.020;113.548;2023-11-21T02:27:27;12.70;;;2.95;;
72404;SDS011;60395;52.020;113.548;2023-11-21T02:30:31;12.55;;;3.72;;
72404;SDS011;60395;52.020;113.548;2023-11-21T02:33:34;8.55;;;3.22;;
72404;SDS011;60395;52.020;113.548;2023-11-21T02:36:37;11.68;;;3.20;;
72404;SDS011;60395;52.020;113.548;2023-11-21T02:39:41;10.27;;;2.30;;
72404;SDS011;60395;52.020;113.548;2023-11-21T02:42:44;10.40;;;2.97;;
72404;SDS011;60395;52.020;113.548;2023-11-21T02:45:48;10.52;;;2.40;;
72404;SDS011;60395;52.020;113.548;2023-11-21T02:48:51;8.85;;;2.20;;
72404;SDS011;60395;52.020;113.548;2023-11-21T02:51:57;5.20;;;1.70;;
72404;SDS011;60395;52.020;113.548;2023-11-21T02:55:01;9.07;;;2.88;;
72404;SDS011;60395;52.020;113.548;2023-11-21T02:58:05;12.18;;;3.38;;
72404;SDS011;60395;52.020;113.548;2023-11-21T03:01:08;5.47;;;1.73;;
72404;SDS011;60395;52.020;113.548;2023-11-21T03:07:20;4.18;;;1.50;;
72404;SDS011;60395;52.020;113.548;2023-11-21T03:10:24;8.93;;;2.13;;
72404;SDS011;60395;52.020;113.548;2023-11-21T03:13:27;13.43;;;2.38;;
72404;SDS011;60395;52.020;113.548;2023-11-21T03:16:32;12.57;;;3.25;;
72404;SDS011;60395;52.020;113.548;2023-11-21T03:19:35;4.78;;;1.90;;
72404;SDS011;60395;52.020;113.548;2023-11-21T03:22:39;4.90;;;1.70;;
72404;SDS011;60395;52.020;113.548;2023-11-21T03:25:42;5.10;;;1.30;;
72404;SDS011;60395;52.020;113.548;2023-11-21T03:28:46;4.32;;;1.23;;
72404;SDS011;60395;52.020;113.548;2023-11-21T03:31:49;3.17;;;1.40;;
72404;SDS011;60395;52.020;113.548;2023-11-21T03:34:56;6.80;;;2.17;;
72404;SDS011;60395;52.020;113.548;2023-11-21T03:38:01;9.40;;;1.90;;
72404;SDS011;60395;52.020;113.548;2023-11-21T03:41:04;6.72;;;2.00;;
72404;SDS011;60395;52.020;113.548;2023-11-21T03:44:08;9.82;;;2.22;;
72404;SDS011;60395;52.020;113.548;2023-11-21T03:47:11;10.07;;;2.45;;
72404;SDS011;60395;52.020;113.548;2023-11-21T03:50:15;11.13;;;2.83;;
72404;SDS011;60395;52.020;113.548;2023-11-21T03:53:18;10.80;;;2.30;;
72404;SDS011;60395;52.020;113.548;2023-11-21T03:56:21;6.15;;;2.17;;
72404;SDS011;60395;52.020;113.548;2023-11-21T03:59:25;19.25;;;2.90;;
72404;SDS011;60395;52.020;113.548;2023-11-21T04:02:28;8.73;;;2.35;;
72404;SDS011;60395;52.020;113.548;2023-11-21T04:05:34;5.85;;;1.60;;
72404;SDS011;60395;52.020;113.548;2023-11-21T04:08:40;8.13;;;2.35;;
72404;SDS011;60395;52.020;113.548;2023-11-21T04:11:43;5.60;;;2.10;;
72404;SDS011;60395;52.020;113.548;2023-11-21T04:14:48;5.28;;;2.03;;
72404;SDS011;60395;52.020;113.548;2023-11-21T04:17:52;12.50;;;2.60;;
72404;SDS011;60395;52.020;113.548;2023-11-21T04:20:56;10.30;;;3.53;;
72404;SDS011;60395;52.020;113.548;2023-11-21T04:23:59;8.15;;;2.67;;
72404;SDS011;60395;52.020;113.548;2023-11-21T04:27:02;9.93;;;3.08;;
72404;SDS011;60395;52.020;113.548;2023-11-21T04:30:06;9.02;;;2.40;;
72404;SDS011;60395;52.020;113.548;2023-11-21T04:33:09;5.18;;;2.33;;
72404;SDS011;60395;52.020;113.548;2023-11-21T04:36:13;4.00;;;1.80;;
72404;SDS011;60395;52.020;113.548;2023-11-21T04:39:16;13.75;;;4.35;;
72404;SDS011;60395;52.020;113.548;2023-11-21T04:42:22;8.07;;;2.22;;
72404;SDS011;60395;52.020;113.548;2023-11-21T04:45:26;12.75;;;2.75;;
72404;SDS011;60395;52.020;113.548;2023-11-21T04:48:35;5.95;;;2.22;;
72404;SDS011;60395;52.020;113.548;2023-11-21T04:51:48;3.80;;;2.10;;
72404;SDS011;60395;52.020;113.548;2023-11-21T04:54:51;5.32;;;2.35;;
72404;SDS011;60395;52.020;113.548;2023-11-21T04:57:56;7.28;;;2.20;;
72404;SDS011;60395;52.020;113.548;2023-11-21T05:01:00;13.63;;;2.88;;
72404;SDS011;60395;52.020;113.548;2023-11-21T05:04:06;18.42;;;2.40;;
72404;SDS011;60395;52.020;113.548;2023-11-21T05:07:11;7.30;;;1.83;;
72404;SDS011;60395;52.020;113.548;2023-11-21T05:10:14;11.18;;;3.10;;
72404;SDS011;60395;52.020;113.548;2023-11-21T05:13:19;11.20;;;2.43;;
72404;SDS011;60395;52.020;113.548;2023-11-21T05:16:25;14.02;;;2.58;;
72404;SDS011;60395;52.020;113.548;2023-11-21T05:19:32;7.60;;;2.45;;
72404;SDS011;60395;52.020;113.548;2023-11-21T05:22:35;17.27;;;3.60;;
72404;SDS011;60395;52.020;113.548;2023-11-21T05:25:39;14.18;;;2.88;;
72404;SDS011;60395;52.020;113.548;2023-11-21T05:31:47;9.20;;;2.47;;
72404;SDS011;60395;52.020;113.548;2023-11-21T05:34:50;8.40;;;1.80;;
72404;SDS011;60395;52.020;113.548;2023-11-21T05:37:55;8.35;;;1.67;;
72404;SDS011;60395;52.020;113.548;2023-11-21T05:40:58;9.07;;;1.40;;
72404;SDS011;60395;52.020;113.548;2023-11-21T05:44:03;8.13;;;1.70;;
72404;SDS011;60395;52.020;113.548;2023-11-21T05:47:06;19.85;;;4.55;;
72404;SDS011;60395;52.020;113.548;2023-11-21T05:50:10;17.10;;;3.92;;
72404;SDS011;60395;52.020;113.548;2023-11-21T05:53:17;7.53;;;2.03;;
72404;SDS011;60395;52.020;113.548;2023-11-21T05:56:20;7.80;;;2.17;;
72404;SDS011;60395;52.020;113.548;2023-11-21T05:59:23;15.05;;;3.50;;
72404;SDS011;60395;52.020;113.548;2023-11-21T06:02:26;8.98;;;2.10;;
72404;SDS011;60395;52.020;113.548;2023-11-21T06:05:30;3.45;;;1.70;;
72404;SDS011;60395;52.020;113.548;2023-11-21T06:08:34;5.43;;;1.88;;
72404;SDS011;60395;52.020;113.548;2023-11-21T06:11:37;8.13;;;1.40;;
72404;SDS011;60395;52.020;113.548;2023-11-21T06:14:41;6.93;;;1.97;;
72404;SDS011;60395;52.020;113.548;2023-11-21T06:17:44;7.50;;;1.50;;
72404;SDS011;60395;52.020;113.548;2023-11-21T06:20:51;7.65;;;1.83;;
72404;SDS011;60395;52.020;113.548;2023-11-21T06:23:55;8.25;;;2.55;;
72404;SDS011;60395;52.020;113.548;2023-11-21T06:26:59;8.03;;;2.63;;
72404;SDS011;60395;52.020;113.548;2023-11-21T06:30:02;17.58;;;2.30;;
72404;SDS011;60395;52.020;113.548;2023-11-21T06:33:06;15.52;;;3.80;;
72404;SDS011;60395;52.020;113.548;2023-11-21T06:36:10;8.07;;;2.72;;
72404;SDS011;60395;52.020;113.548;2023-11-21T06:39:16;9.50;;;2.83;;
72404;SDS011;60395;52.020;113.548;2023-11-21T06:42:20;10.07;;;3.58;;
72404;SDS011;60395;52.020;113.548;2023-11-21T06:45:23;7.07;;;2.72;;
72404;SDS011;60395;52.020;113.548;2023-11-21T06:48:26;14.10;;;5.28;;
72404;SDS011;60395;52.020;113.548;2023-11-21T06:51:30;8.70;;;3.30;;
72404;SDS011;60395;52.020;113.548;2023-11-21T06:54:33;16.08;;;4.63;;
72404;SDS011;60395;52.020;113.548;2023-11-21T06:57:36;13.40;;;4.05;;
72404;SDS011;60395;52.020;113.548;2023-11-21T07:00:40;20.05;;;4.63;;
72404;SDS011;60395;52.020;113.548;2023-11-21T07:03:48;16.17;;;3.58;;
72404;SDS011;60395;52.020;113.548;2023-11-21T07:06:55;16.73;;;3.78;;
72404;SDS011;60395;52.020;113.548;2023-11-21T07:09:58;23.02;;;6.28;;
72404;SDS011;60395;52.020;113.548;2023-11-21T07:13:05;25.70;;;4.75;;
72404;SDS011;60395;52.020;113.548;2023-11-21T07:16:09;15.57;;;4.63;;
72404;SDS011;60395;52.020;113.548;2023-11-21T07:19:13;26.83;;;6.47;;
72404;SDS011;60395;52.020;113.548;2023-11-21T07:22:16;25.25;;;7.30;;
72404;SDS011;60395;52.020;113.548;2023-11-21T07:25:24;18.60;;;5.93;;
72404;SDS011;60395;52.020;113.548;2023-11-21T07:28:27;26.02;;;8.32;;
72404;SDS011;60395;52.020;113.548;2023-11-21T07:31:30;18.40;;;6.18;;
72404;SDS011;60395;52.020;113.548;2023-11-21T07:34:36;26.50;;;7.53;;
72404;SDS011;60395;52.020;113.548;2023-11-21T07:37:40;34.88;;;9.65;;
72404;SDS011;60395;52.020;113.548;2023-11-21T07:40:43;24.50;;;8.20;;
72404;SDS011;60395;52.020;113.548;2023-11-21T07:43:46;25.60;;;7.15;;
72404;SDS011;60395;52.020;113.548;2023-11-21T07:46:50;23.80;;;6.13;;
72404;SDS011;60395;52.020;113.548;2023-11-21T07:49:54;29.33;;;10.00;;
72404;SDS011;60395;52.020;113.548;2023-11-21T07:52:58;30.92;;;9.13;;
72404;SDS011;60395;52.020;113.548;2023-11-21T07:56:05;35.97;;;10.02;;
72404;SDS011;60395;52.020;113.548;2023-11-21T07:59:12;45.88;;;15.50;;
72404;SDS011;60395;52.020;113.548;2023-11-21T08:02:16;35.43;;;10.60;;
72404;SDS011;60395;52.020;113.548;2023-11-21T08:05:20;36.05;;;8.82;;
72404;SDS011;60395;52.020;113.548;2023-11-21T08:08:33;23.60;;;7.00;;
72404;SDS011;60395;52.020;113.548;2023-11-21T08:11:36;8.38;;;3.05;;
72404;SDS011;60395;52.020;113.548;2023-11-21T08:14:41;14.63;;;2.60;;
72404;SDS011;60395;52.020;113.548;2023-11-21T08:17:46;7.10;;;2.55;;
72404;SDS011;60395;52.020;113.548;2023-11-21T08:20:50;5.28;;;2.47;;
72404;SDS011;60395;52.020;113.548;2023-11-21T08:23:53;6.28;;;1.73;;
72404;SDS011;60395;52.020;113.548;2023-11-21T08:26:57;11.90;;;3.83;;
72404;SDS011;60395;52.020;113.548;2023-11-21T08:30:01;10.02;;;3.33;;
72404;SDS011;60395;52.020;113.548;2023-11-21T08:33:05;4.45;;;2.28;;
72404;SDS011;60395;52.020;113.548;2023-11-21T08:36:09;22.63;;;5.85;;
72404;SDS011;60395;52.020;113.548;2023-11-21T08:39:14;7.57;;;2.78;;
72404;SDS011;60395;52.020;113.548;2023-11-21T08:42:19;14.07;;;4.28;;
72404;SDS011;60395;52.020;113.548;2023-11-21T08:45:22;16.23;;;4.82;;
72404;SDS011;60395;52.020;113.548;2023-11-21T08:48:25;19.58;;;5.93;;
72404;SDS011;60395;52.020;113.548;2023-11-21T08:51:30;25.50;;;6.65;;
72404;SDS011;60395;52.020;113.548;2023-11-21T08:54:34;25.38;;;7.25;;
72404;SDS011;60395;52.020;113.548;2023-11-21T08:57:37;33.63;;;10.10;;
72404;SDS011;60395;52.020;113.548;2023-11-21T09:00:41;37.83;;;11.18;;
72404;SDS011;60395;52.020;113.548;2023-11-21T09:03:44;34.53;;;9.60;;
72404;SDS011;60395;52.020;113.548;2023-11-21T09:06:47;33.38;;;10.75;;
72404;SDS011;60395;52.020;113.548;2023-11-21T09:09:51;43.22;;;12.75;;
72404;SDS011;60395;52.020;113.548;2023-11-21T09:12:54;35.58;;;11.25;;
72404;SDS011;60395;52.020;113.548;2023-11-21T09:15:57;45.90;;;12.35;;
72404;SDS011;60395;52.020;113.548;2023-11-21T09:19:01;34.83;;;11.05;;
72404;SDS011;60395;52.020;113.548;2023-11-21T09:22:06;39.13;;;10.90;;
72404;SDS011;60395;52.020;113.548;2023-11-21T09:25:10;33.13;;;10.15;;
72404;SDS011;60395;52.020;113.548;2023-11-21T09:28:13;30.95;;;9.52;;
72404;SDS011;60395;52.020;113.548;2023-11-21T09:31:16;34.97;;;8.90;;
72404;SDS011;60395;52.020;113.548;2023-11-21T09:34:20;36.95;;;7.88;;
72404;SDS011;60395;52.020;113.548;2023-11-21T09:37:23;32.25;;;8.57;;
72404;SDS011;60395;52.020;113.548;2023-11-21T09:40:29;24.95;;;8.25;;
72404;SDS011;60395;52.020;113.548;2023-11-21T09:46:40;26.85;;;8.68;;
72404;SDS011;60395;52.020;113.548;2023-11-21T09:49:47;42.97;;;10.02;;
72404;SDS011;60395;52.020;113.548;2023-11-21T09:56:20;71.30;;;22.55;;
72404;SDS011;60395;52.020;113.548;2023-11-21T09:59:27;74.38;;;19.13;;
72404;SDS011;60395;52.020;113.548;2023-11-21T10:02:34;26.92;;;9.85;;
72404;SDS011;60395;52.020;113.548;2023-11-21T10:05:44;30.40;;;9.57;;
72404;SDS011;60395;52.020;113.548;2023-11-21T10:08:53;18.77;;;6.43;;
72404;SDS011;60395;52.020;113.548;2023-11-21T10:11:59;19.85;;;6.00;;
72404;SDS011;60395;52.020;113.548;2023-11-21T10:15:03;25.63;;;5.82;;
72404;SDS011;60395;52.020;113.548;2023-11-21T10:18:11;19.33;;;5.75;;
72404;SDS011;60395;52.020;113.548;2023-11-21T10:21:17;29.83;;;10.73;;
72404;SDS011;60395;52.020;113.548;2023-11-21T10:24:21;20.80;;;7.97;;
72404;SDS011;60395;52.020;113.548;2023-11-21T10:27:26;17.75;;;6.00;;
72404;SDS011;60395;52.020;113.548;2023-11-21T10:30:37;12.82;;;4.68;;
72404;SDS011;60395;52.020;113.548;2023-11-21T10:33:43;20.50;;;7.47;;
72404;SDS011;60395;52.020;113.548;2023-11-21T10:36:47;29.13;;;11.07;;
72404;SDS011;60395;52.020;113.548;2023-11-21T10:39:51;21.75;;;8.95;;
72404;SDS011;60395;52.020;113.548;2023-11-21T10:42:54;36.25;;;9.10;;
72404;SDS011;60395;52.020;113.548;2023-11-21T10:46:08;20.42;;;8.05;;
72404;SDS011;60395;52.020;113.548;2023-11-21T10:49:12;21.55;;;7.47;;
72404;SDS011;60395;52.020;113.548;2023-11-21T10:52:15;25.92;;;9.00;;
72404;SDS011;60395;52.020;113.548;2023-11-21T10:55:21;27.50;;;8.48;;
72404;SDS011;60395;52.020;113.548;2023-11-21T10:58:26;25.20;;;9.10;;
72404;SDS011;60395;52.020;113.548;2023-11-21T11:01:29;29.80;;;10.02;;
72404;SDS011;60395;52.020;113.548;2023-11-21T11:04:34;21.45;;;8.55;;
72404;SDS011;60395;52.020;113.548;2023-11-21T11:07:40;30.13;;;9.13;;
72404;SDS011;60395;52.020;113.548;2023-11-21T11:10:47;26.75;;;8.88;;
72404;SDS011;60395;52.020;113.548;2023-11-21T11:13:53;24.13;;;9.40;;
72404;SDS011;60395;52.020;113.548;2023-11-21T11:16:58;26.67;;;9.80;;
72404;SDS011;60395;52.020;113.548;2023-11-21T11:20:03;21.50;;;7.25;;
72404;SDS011;60395;52.020;113.548;2023-11-21T11:26:50;18.92;;;6.63;;
72404;SDS011;60395;52.020;113.548;2023-11-21T11:33:27;19.00;;;7.65;;
72404;SDS011;60395;52.020;113.548;2023-11-21T11:36:55;34.35;;;13.45;;
72404;SDS011;60395;52.020;113.548;2023-11-21T11:40:13;26.05;;;10.90;;
72404;SDS011;60395;52.020;113.548;2023-11-21T11:43:25;31.23;;;10.85;;
72404;SDS011;60395;52.020;113.548;2023-11-21T11:46:42;28.02;;;10.82;;
72404;SDS011;60395;52.020;113.548;2023-11-21T11:49:59;31.67;;;10.50;;
72404;SDS011;60395;52.020;113.548;2023-11-21T11:53:19;32.22;;;13.05;;
72404;SDS011;60395;52.020;113.548;2023-11-21T12:03:19;42.58;;;15.18;;
72404;SDS011;60395;52.020;113.548;2023-11-21T12:06:30;63.07;;;18.10;;
72404;SDS011;60395;52.020;113.548;2023-11-21T12:09:37;54.50;;;21.02;;
72404;SDS011;60395;52.020;113.548;2023-11-21T12:12:59;90.40;;;27.65;;
72404;SDS011;60395;52.020;113.548;2023-11-21T12:16:03;134.38;;;35.17;;
72404;SDS011;60395;52.020;113.548;2023-11-21T12:19:07;80.73;;;27.37;;
72404;SDS011;60395;52.020;113.548;2023-11-21T12:22:11;66.97;;;22.23;;
72404;SDS011;60395;52.020;113.548;2023-11-21T12:25:15;81.93;;;24.27;;
72404;SDS011;60395;52.020;113.548;2023-11-21T12:28:21;51.17;;;18.33;;
72404;SDS011;60395;52.020;113.548;2023-11-21T12:31:25;59.65;;;18.48;;
72404;SDS011;60395;52.020;113.548;2023-11-21T12:34:29;60.20;;;18.98;;
72404;SDS011;60395;52.020;113.548;2023-11-21T12:37:33;125.07;;;40.72;;
72404;SDS011;60395;52.020;113.548;2023-11-21T12:40:37;54.33;;;18.88;;
72404;SDS011;60395;52.020;113.548;2023-11-21T12:43:40;60.25;;;21.00;;
72404;SDS011;60395;52.020;113.548;2023-11-21T12:46:43;56.53;;;20.30;;
72404;SDS011;60395;52.020;113.548;2023-11-21T12:49:47;65.63;;;19.45;;
72404;SDS011;60395;52.020;113.548;2023-11-21T12:52:51;71.30;;;23.25;;
72404;SDS011;60395;52.020;113.548;2023-11-21T12:59:00;93.72;;;28.67;;
72404;SDS011;60395;52.020;113.548;2023-11-21T13:02:08;90.15;;;29.15;;
72404;SDS011;60395;52.020;113.548;2023-11-21T13:05:13;79.35;;;26.08;;
72404;SDS011;60395;52.020;113.548;2023-11-21T13:08:26;105.45;;;30.05;;
72404;SDS011;60395;52.020;113.548;2023-11-21T13:11:33;74.22;;;25.60;;
72404;SDS011;60395;52.020;113.548;2023-11-21T13:14:42;48.63;;;18.95;;
72404;SDS011;60395;52.020;113.548;2023-11-21T13:17:45;60.03;;;20.35;;
72404;SDS011;60395;52.020;113.548;2023-11-21T13:20:49;53.28;;;19.65;;
72404;SDS011;60395;52.020;113.548;2023-11-21T13:23:53;63.83;;;22.33;;
72404;SDS011;60395;52.020;113.548;2023-11-21T13:30:00;54.20;;;18.00;;
72404;SDS011;60395;52.020;113.548;2023-11-21T13:33:04;63.20;;;19.98;;
72404;SDS011;60395;52.020;113.548;2023-11-21T13:36:09;53.97;;;20.23;;
72404;SDS011;60395;52.020;113.548;2023-11-21T13:39:14;59.72;;;21.13;;
72404;SDS011;60395;52.020;113.548;2023-11-21T13:42:18;101.10;;;34.67;;
72404;SDS011;60395;52.020;113.548;2023-11-21T13:45:21;95.32;;;30.33;;
72404;SDS011;60395;52.020;113.548;2023-11-21T13:48:25;59.10;;;21.10;;
72404;SDS011;60395;52.020;113.548;2023-11-21T13:51:59;46.03;;;18.40;;
72404;SDS011;60395;52.020;113.548;2023-11-21T13:55:04;59.47;;;20.33;;
72404;SDS011;60395;52.020;113.548;2023-11-21T13:58:14;73.38;;;24.10;;
72404;SDS011;60395;52.020;113.548;2023-11-21T14:01:26;73.97;;;25.70;;
72404;SDS011;60395;52.020;113.548;2023-11-21T14:04:32;76.70;;;27.00;;
72404;SDS011;60395;52.020;113.548;2023-11-21T14:07:35;96.65;;;28.67;;
72404;SDS011;60395;52.020;113.548;2023-11-21T14:10:39;162.23;;;45.25;;
72404;SDS011;60395;52.020;113.548;2023-11-21T14:13:53;266.02;;;78.40;;
72404;SDS011;60395;52.020;113.548;2023-11-21T14:16:56;174.43;;;52.13;;
72404;SDS011;60395;52.020;113.548;2023-11-21T14:20:01;102.20;;;32.88;;
72404;SDS011;60395;52.020;113.548;2023-11-21T14:23:07;82.68;;;28.27;;
72404;SDS011;60395;52.020;113.548;2023-11-21T14:26:11;82.78;;;31.95;;
72404;SDS011;60395;52.020;113.548;2023-11-21T14:29:19;134.07;;;41.08;;
72404;SDS011;60395;52.020;113.548;2023-11-21T14:32:23;81.03;;;26.48;;
72404;SDS011;60395;52.020;113.548;2023-11-21T14:35:28;72.45;;;24.17;;
72404;SDS011;60395;52.020;113.548;2023-11-21T14:38:34;65.38;;;24.52;;
72404;SDS011;60395;52.020;113.548;2023-11-21T14:41:39;74.93;;;26.73;;
72404;SDS011;60395;52.020;113.548;2023-11-21T14:44:43;86.05;;;25.98;;
72404;SDS011;60395;52.020;113.548;2023-11-21T14:47:46;86.43;;;26.40;;
72404;SDS011;60395;52.020;113.548;2023-11-21T14:51:08;72.82;;;24.83;;
72404;SDS011;60395;52.020;113.548;2023-11-21T14:54:18;64.40;;;23.00;;
72404;SDS011;60395;52.020;113.548;2023-11-21T14:57:30;68.32;;;22.52;;
72404;SDS011;60395;52.020;113.548;2023-11-21T15:00:33;68.90;;;21.70;;
72404;SDS011;60395;52.020;113.548;2023-11-21T15:03:38;49.80;;;18.67;;
72404;SDS011;60395;52.020;113.548;2023-11-21T15:06:52;78.35;;;24.60;;
72404;SDS011;60395;52.020;113.548;2023-11-21T15:09:59;92.25;;;29.65;;
72404;SDS011;60395;52.020;113.548;2023-11-21T15:13:03;130.27;;;36.20;;
72404;SDS011;60395;52.020;113.548;2023-11-21T15:16:06;139.25;;;40.95;;
72404;SDS011;60395;52.020;113.548;2023-11-21T15:19:13;135.65;;;39.97;;
72404;SDS011;60395;52.020;113.548;2023-11-21T15:22:20;115.18;;;39.47;;
72404;SDS011;60395;52.020;113.548;2023-11-21T15:25:24;150.95;;;39.55;;
72404;SDS011;60395;52.020;113.548;2023-11-21T15:28:28;107.43;;;35.08;;
72404;SDS011;60395;52.020;113.548;2023-11-21T15:31:31;114.05;;;34.10;;
72404;SDS011;60395;52.020;113.548;2023-11-21T15:34:34;112.50;;;34.60;;
72404;SDS011;60395;52.020;113.548;2023-11-21T15:40:42;93.25;;;30.25;;
72404;SDS011;60395;52.020;113.548;2023-11-21T15:43:45;102.93;;;30.87;;
72404;SDS011;60395;52.020;113.548;2023-11-21T15:46:52;98.32;;;29.75;;
72404;SDS011;60395;52.020;113.548;2023-11-21T15:49:58;99.90;;;30.10;;
72404;SDS011;60395;52.020;113.548;2023-11-21T15:53:02;112.40;;;35.03;;
72404;SDS011;60395;52.020;113.548;2023-11-21T15:56:08;122.35;;;34.92;;
72404;SDS011;60395;52.020;113.548;2023-11-21T15:59:15;133.80;;;37.97;;
72404;SDS011;60395;52.020;113.548;2023-11-21T16:02:21;119.82;;;37.05;;
72404;SDS011;60395;52.020;113.548;2023-11-21T16:05:24;127.68;;;38.60;;
72404;SDS011;60395;52.020;113.548;2023-11-21T16:08:28;156.90;;;44.50;;
72404;SDS011;60395;52.020;113.548;2023-11-21T16:11:31;161.20;;;47.58;;
72404;SDS011;60395;52.020;113.548;2023-11-21T16:14:38;171.48;;;51.63;;
72404;SDS011;60395;52.020;113.548;2023-11-21T16:17:47;193.30;;;53.28;;
72404;SDS011;60395;52.020;113.548;2023-11-21T16:20:50;220.15;;;57.78;;
72404;SDS011;60395;52.020;113.548;2023-11-21T16:23:54;193.95;;;56.80;;
72404;SDS011;60395;52.020;113.548;2023-11-21T16:26:58;207.13;;;54.63;;
72404;SDS011;60395;52.020;113.548;2023-11-21T16:30:03;205.98;;;53.78;;
72404;SDS011;60395;52.020;113.548;2023-11-21T16:33:07;180.60;;;55.78;;
72404;SDS011;60395;52.020;113.548;2023-11-21T16:36:10;186.65;;;53.80;;
72404;SDS011;60395;52.020;113.548;2023-11-21T16:39:14;152.23;;;48.97;;
72404;SDS011;60395;52.020;113.548;2023-11-21T16:42:19;161.43;;;47.00;;
72404;SDS011;60395;52.020;113.548;2023-11-21T16:48:26;152.90;;;46.42;;
72404;SDS011;60395;52.020;113.548;2023-11-21T16:51:30;203.88;;;50.85;;
72404;SDS011;60395;52.020;113.548;2023-11-21T16:54:33;154.98;;;44.28;;
72404;SDS011;60395;52.020;113.548;2023-11-21T16:57:36;179.50;;;47.92;;
72404;SDS011;60395;52.020;113.548;2023-11-21T17:00:40;154.95;;;47.33;;
72404;SDS011;60395;52.020;113.548;2023-11-21T17:03:44;172.70;;;48.65;;
72404;SDS011;60395;52.020;113.548;2023-11-21T17:06:48;172.40;;;46.92;;
72404;SDS011;60395;52.020;113.548;2023-11-21T17:09:51;169.30;;;49.85;;
72404;SDS011;60395;52.020;113.548;2023-11-21T17:12:55;171.18;;;50.30;;
72404;SDS011;60395;52.020;113.548;2023-11-21T17:15:58;160.80;;;47.63;;
72404;SDS011;60395;52.020;113.548;2023-11-21T17:19:01;168.85;;;48.05;;
72404;SDS011;60395;52.020;113.548;2023-11-21T17:22:06;187.05;;;52.00;;
72404;SDS011;60395;52.020;113.548;2023-11-21T17:25:10;186.48;;;51.13;;
72404;SDS011;60395;52.020;113.548;2023-11-21T17:28:13;196.40;;;57.55;;
72404;SDS011;60395;52.020;113.548;2023-11-21T17:31:16;205.13;;;53.85;;
72404;SDS011;60395;52.020;113.548;2023-11-21T17:37:24;146.15;;;44.13;;
72404;SDS011;60395;52.020;113.548;2023-11-21T17:40:27;185.38;;;50.38;;
72404;SDS011;60395;52.020;113.548;2023-11-21T17:43:30;185.02;;;50.47;;
72404;SDS011;60395;52.020;113.548;2023-11-21T17:46:42;188.55;;;50.75;;
72404;SDS011;60395;52.020;113.548;2023-11-21T17:49:45;172.93;;;50.03;;
72404;SDS011;60395;52.020;113.548;2023-11-21T17:52:50;150.32;;;44.78;;
72404;SDS011;60395;52.020;113.548;2023-11-21T17:55:53;146.90;;;42.90;;
72404;SDS011;60395;52.020;113.548;2023-11-21T17:58:56;127.30;;;40.83;;
72404;SDS011;60395;52.020;113.548;2023-11-21T18:01:59;133.45;;;38.45;;
72404;SDS011;60395;52.020;113.548;2023-11-21T18:05:03;123.20;;;37.08;;
72404;SDS011;60395;52.020;113.548;2023-11-21T18:08:15;109.75;;;32.90;;
72404;SDS011;60395;52.020;113.548;2023-11-21T18:11:19;102.38;;;33.28;;
72404;SDS011;60395;52.020;113.548;2023-11-21T18:14:22;138.48;;;36.28;;
72404;SDS011;60395;52.020;113.548;2023-11-21T18:17:25;116.70;;;34.58;;
72404;SDS011;60395;52.020;113.548;2023-11-21T18:20:29;113.28;;;31.95;;
72404;SDS011;60395;52.020;113.548;2023-11-21T18:23:32;84.93;;;29.75;;